createdAt,value
2018-02-15T00:01:24.309Z,100555.66
2018-02-15T00:03:52.033Z,100562.27
2018-02-15T00:06:19.484Z,100570.17
2018-02-15T00:08:46.933Z,100573.09
2018-02-15T00:11:14.489Z,100568.50
2018-02-15T00:13:41.968Z,100565.51
2018-02-15T00:16:09.889Z,100563.33
2018-02-15T00:18:37.339Z,100564.09
2018-02-15T00:21:04.792Z,100562.79
2018-02-15T00:23:32.265Z,100565.94
2018-02-15T00:25:59.925Z,100565.92
2018-02-15T00:28:27.448Z,100567.02
2018-02-15T00:30:54.896Z,100564.72
2018-02-15T00:33:22.361Z,100567.01
2018-02-15T00:35:49.829Z,100573.54
2018-02-15T00:38:17.274Z,100566.56
2018-02-15T00:40:45.104Z,100562.24
2018-02-15T00:43:12.600Z,100540.31
2018-02-15T00:45:40.046Z,100533.73
2018-02-15T00:48:07.516Z,100517.72
2018-02-15T00:50:34.965Z,100513.81
2018-02-15T00:53:02.757Z,100517.37
2018-02-15T00:55:30.200Z,100513.45
2018-02-15T00:57:57.647Z,100516.61
2018-02-15T01:00:25.120Z,100518.98
2018-02-15T01:02:52.561Z,100516.19
2018-02-15T01:05:20.037Z,100510.56
2018-02-15T01:07:47.488Z,100499.53
2018-02-15T01:10:14.937Z,100500.88
2018-02-15T01:12:42.404Z,100501.89
2018-02-15T01:15:09.849Z,100488.45
2018-02-15T01:17:37.460Z,100485.32
2018-02-15T01:20:04.905Z,100478.23
2018-02-15T01:22:32.364Z,100491.30
2018-02-15T01:24:59.856Z,100489.47
2018-02-15T01:27:27.305Z,100488.16
2018-02-15T01:29:54.901Z,100482.58
2018-02-15T01:32:22.372Z,100482.52
2018-02-15T01:34:49.812Z,100479.52
2018-02-15T01:37:17.304Z,100475.63
2018-02-15T01:39:44.749Z,100469.50
2018-02-15T01:42:12.225Z,100465.08
2018-02-15T01:44:39.670Z,100462.88
2018-02-15T01:47:07.116Z,100466.38
2018-02-15T01:49:34.612Z,100461.68
2018-02-15T01:52:02.060Z,100476.94
2018-02-15T01:54:29.979Z,100478.33
2018-02-15T01:56:57.429Z,100472.61
2018-02-15T01:59:24.909Z,100468.31
2018-02-15T02:01:52.378Z,100460.84
2018-02-15T02:04:19.824Z,100449.94
2018-02-15T02:06:47.292Z,100449.95
2018-02-15T02:09:14.754Z,100453.57
2018-02-15T02:11:42.201Z,100450.48
2018-02-15T02:14:09.668Z,100450.20
2018-02-15T02:16:37.113Z,100450.21
2018-02-15T02:19:04.580Z,100450.64
2018-02-15T02:21:32.050Z,100459.88
2018-02-15T02:23:59.697Z,100461.61
2018-02-15T02:26:27.172Z,100466.82
2018-02-15T02:28:54.653Z,100461.05
2018-02-15T02:31:22.123Z,100448.37
2018-02-15T02:33:49.590Z,100443.14
2018-02-15T02:36:17.045Z,100432.23
2018-02-15T02:38:44.513Z,100426.96
2018-02-15T02:41:11.960Z,100403.00
2018-02-15T02:43:39.472Z,100401.67
2018-02-15T02:46:06.937Z,100403.39
2018-02-15T02:48:34.389Z,100403.41
2018-02-15T02:51:01.866Z,100396.44
2018-02-15T02:53:29.352Z,100394.49
2018-02-15T02:55:57.065Z,100394.67
2018-02-15T02:58:24.508Z,100396.17
2018-02-15T03:00:51.968Z,100379.16
2018-02-15T03:03:19.437Z,100375.17
2018-02-15T03:05:46.894Z,100370.75
2018-02-15T03:08:14.388Z,100372.55
2018-02-15T03:10:41.834Z,100378.59
2018-02-15T03:13:09.317Z,100376.83
2018-02-15T03:15:36.802Z,100373.80
2018-02-15T03:18:04.288Z,100369.47
2018-02-15T03:20:31.800Z,100371.72
2018-02-15T03:22:59.392Z,100370.36
2018-02-15T03:25:26.849Z,100372.91
2018-02-15T03:27:54.317Z,100370.30
2018-02-15T03:30:21.762Z,100378.67
2018-02-15T03:32:49.258Z,100377.78
2018-02-15T03:35:16.716Z,100375.59
2018-02-15T03:37:44.170Z,100379.13
2018-02-15T03:40:11.661Z,100385.64
2018-02-15T03:42:39.108Z,100386.58
2018-02-15T03:45:06.753Z,100386.20
2018-02-15T03:47:34.200Z,100392.45
2018-02-15T03:50:01.657Z,100396.84
2018-02-15T03:52:29.126Z,100400.45
2018-02-15T03:54:56.691Z,100395.23
2018-02-15T03:57:24.163Z,100397.38
2018-02-15T03:59:51.608Z,100393.08
2018-02-15T04:02:19.056Z,100391.74
2018-02-15T04:04:46.529Z,100391.19
2018-02-15T04:07:13.997Z,100393.83
2018-02-15T04:09:41.860Z,100392.47
2018-02-15T04:12:09.304Z,100387.59
2018-02-15T04:14:36.778Z,100389.01
2018-02-15T04:17:04.252Z,100393.82
2018-02-15T04:19:31.705Z,100389.44
2018-02-15T04:21:59.205Z,100386.48
2018-02-15T04:24:26.662Z,100388.22
2018-02-15T04:26:54.111Z,100383.77
2018-02-15T04:29:21.825Z,100383.84
2018-02-15T04:31:49.268Z,100387.78
2018-02-15T04:34:16.740Z,100387.57
2018-02-15T04:36:44.233Z,100381.98
2018-02-15T04:39:11.679Z,100383.30
2018-02-15T04:41:39.121Z,100378.86
2018-02-15T04:44:06.752Z,100375.32
2018-02-15T04:46:34.225Z,100379.14
2018-02-15T04:49:01.681Z,100379.66
2018-02-15T04:51:29.257Z,100375.30
2018-02-15T04:53:56.708Z,100370.00
2018-02-15T04:56:24.166Z,100372.58
2018-02-15T04:58:51.645Z,100378.30
2018-02-15T05:01:19.096Z,100376.60
2018-02-15T05:03:47.496Z,100377.03
2018-02-15T05:06:15.305Z,100370.48
2018-02-15T05:08:42.789Z,100365.13
2018-02-15T05:11:10.237Z,100352.84
2018-02-15T05:13:37.716Z,100351.98
2018-02-15T05:16:05.186Z,100355.13
2018-02-15T05:18:32.651Z,100363.94
2018-02-15T05:21:00.361Z,100352.98
2018-02-15T05:23:27.870Z,100355.14
2018-02-15T05:25:55.323Z,100354.28
2018-02-15T05:28:22.944Z,100357.84
2018-02-15T05:30:50.396Z,100359.14
2018-02-15T05:33:17.847Z,100347.81
2018-02-15T05:35:45.552Z,100346.06
2018-02-15T05:38:13.004Z,100349.98
2018-02-15T05:40:40.467Z,100356.11
2018-02-15T05:43:08.300Z,100353.09
2018-02-15T05:45:35.744Z,100354.38
2018-02-15T05:48:03.192Z,100352.19
2018-02-15T05:50:30.984Z,100344.37
2018-02-15T05:52:58.428Z,100346.00
2018-02-15T05:55:25.981Z,100348.47
2018-02-15T05:57:53.612Z,100347.16
2018-02-15T06:00:21.061Z,100351.50
2018-02-15T06:02:48.512Z,100352.80
2018-02-15T06:05:16.000Z,100352.32
2018-02-15T06:07:43.444Z,100353.95
2018-02-15T06:10:10.892Z,100350.30
2018-02-15T06:12:38.536Z,100359.35
2018-02-15T06:15:06.000Z,100368.50
2018-02-15T06:17:33.440Z,100367.64
2018-02-15T06:20:01.240Z,100371.30
2018-02-15T06:22:28.702Z,100364.47
2018-02-15T06:24:56.149Z,100356.64
2018-02-15T06:27:23.620Z,100354.48
2018-02-15T06:29:51.077Z,100355.47
2018-02-15T06:32:18.539Z,100363.76
2018-02-15T06:34:46.161Z,100375.96
2018-02-15T06:37:13.640Z,100371.20
2018-02-15T06:39:41.093Z,100379.37
2018-02-15T06:42:08.724Z,100383.73
2018-02-15T06:44:36.174Z,100384.20
2018-02-15T06:47:03.645Z,100392.86
2018-02-15T06:49:31.120Z,100393.79
2018-02-15T06:51:58.583Z,100398.06
2018-02-15T06:54:26.141Z,100393.20
2018-02-15T06:56:53.609Z,100393.64
2018-02-15T06:59:21.085Z,100401.98
2018-02-15T07:01:48.585Z,100397.34
2018-02-15T07:04:16.148Z,100387.06
2018-02-15T07:06:43.605Z,100384.45
2018-02-15T07:09:11.093Z,100398.18
2018-02-15T07:11:38.537Z,100394.83
2018-02-15T07:14:06.044Z,100392.66
2018-02-15T07:16:33.489Z,100386.47
2018-02-15T07:19:00.932Z,100387.77
2018-02-15T07:21:28.420Z,100379.77
2018-02-15T07:23:55.867Z,100390.15
2018-02-15T07:26:23.544Z,100396.91
2018-02-15T07:28:51.181Z,100384.70
2018-02-15T07:31:18.633Z,100382.08
2018-02-15T07:33:46.105Z,100382.47
2018-02-15T07:36:13.574Z,100389.47
2018-02-15T07:38:41.044Z,100386.27
2018-02-15T07:41:08.513Z,100380.31
2018-02-15T07:43:35.965Z,100379.33
2018-02-15T07:46:03.449Z,100381.05
2018-02-15T07:48:30.888Z,100390.17
2018-02-15T07:50:58.372Z,100377.15
2018-02-15T07:53:25.865Z,100376.61
2018-02-15T07:55:53.320Z,100376.61
2018-02-15T07:58:20.768Z,100371.83
2018-02-15T08:00:48.236Z,100370.55
2018-02-15T08:03:15.693Z,100358.23
2018-02-15T08:05:43.142Z,100359.97
2018-02-15T08:08:10.808Z,100357.70
2018-02-15T08:10:38.265Z,100363.53
2018-02-15T08:13:05.785Z,100360.39
2018-02-15T08:15:33.281Z,100359.52
2018-02-15T08:18:00.744Z,100365.19
2018-02-15T08:20:28.432Z,100368.73
2018-02-15T08:22:55.879Z,100371.55
2018-02-15T08:25:23.380Z,100371.84
2018-02-15T08:27:50.857Z,100369.80
2018-02-15T08:30:18.319Z,100375.31
2018-02-15T08:32:46.029Z,100368.57
2018-02-15T08:35:13.476Z,100365.52
2018-02-15T08:37:40.920Z,100365.56
2018-02-15T08:40:08.386Z,100373.40
2018-02-15T08:42:35.841Z,100365.95
2018-02-15T08:45:03.468Z,100364.31
2018-02-15T08:47:30.920Z,100370.03
2018-02-15T08:49:58.377Z,100383.00
2018-02-15T08:52:25.869Z,100387.02
2018-02-15T08:54:53.411Z,100389.11
2018-02-15T08:57:21.025Z,100389.63
2018-02-15T08:59:48.472Z,100389.10
2018-02-15T09:02:15.941Z,100381.34
2018-02-15T09:04:43.405Z,100378.39
2018-02-15T09:07:10.861Z,100388.53
2018-02-15T09:09:38.485Z,100382.54
2018-02-15T09:12:05.936Z,100380.21
2018-02-15T09:14:33.409Z,100381.57
2018-02-15T09:17:00.896Z,100378.20
2018-02-15T09:19:28.345Z,100372.54
2018-02-15T09:21:55.915Z,100381.77
2018-02-15T09:24:23.365Z,100376.63
2018-02-15T09:26:50.821Z,100383.66
2018-02-15T09:29:18.289Z,100380.32
2018-02-15T09:31:45.737Z,100379.84
2018-02-15T09:34:13.476Z,100370.70
2018-02-15T09:36:40.937Z,100372.30
2018-02-15T09:39:08.381Z,100373.64
2018-02-15T09:41:35.857Z,100370.08
2018-02-15T09:44:03.320Z,100368.30
2018-02-15T09:46:30.801Z,100373.34
2018-02-15T09:48:58.257Z,100373.61
2018-02-15T09:51:25.707Z,100374.77
2018-02-15T09:53:53.176Z,100371.30
2018-02-15T09:56:20.665Z,100371.28
2018-02-15T09:58:48.145Z,100381.17
2018-02-15T10:01:15.593Z,100387.81
2018-02-15T10:03:43.059Z,100386.97
2018-02-15T10:06:10.553Z,100384.36
2018-02-15T10:08:38.035Z,100374.30
2018-02-15T10:11:05.577Z,100376.59
2018-02-15T10:13:33.221Z,100388.95
2018-02-15T10:16:00.680Z,100390.04
2018-02-15T10:18:28.171Z,100385.68
2018-02-15T10:20:55.636Z,100378.25
2018-02-15T10:23:23.128Z,100379.60
2018-02-15T10:25:50.577Z,100373.27
2018-02-15T10:28:18.021Z,100372.55
2018-02-15T10:30:45.488Z,100384.65
2018-02-15T10:33:12.941Z,100379.36
2018-02-15T10:35:40.427Z,100374.62
2018-02-15T10:38:07.881Z,100360.41
2018-02-15T10:40:35.326Z,100346.77
2018-02-15T10:43:02.808Z,100347.20
2018-02-15T10:45:30.270Z,100351.25
2018-02-15T10:47:58.028Z,100344.33
2018-02-15T10:50:25.477Z,100345.48
2018-02-15T10:52:52.937Z,100348.16
2018-02-15T10:55:20.409Z,100350.00
2018-02-15T10:57:47.905Z,100353.42
2018-02-15T11:00:15.525Z,100342.09
2018-02-15T11:02:43.032Z,100330.73
2018-02-15T11:05:16.064Z,100325.88
2018-02-15T11:07:43.516Z,100325.45
2018-02-15T11:10:10.973Z,100339.97
2018-02-15T11:12:38.437Z,100361.39
2018-02-15T11:15:05.895Z,100365.77
2018-02-15T11:17:33.384Z,100345.69
2018-02-15T11:20:00.836Z,100362.28
2018-02-15T11:22:28.340Z,100365.42
2018-02-15T11:24:56.022Z,100371.19
2018-02-15T11:27:23.477Z,100371.19
2018-02-15T11:29:51.118Z,100365.39
2018-02-15T11:32:18.581Z,100346.53
2018-02-15T11:34:46.036Z,100347.48
2018-02-15T11:37:13.505Z,100354.47
2018-02-15T11:39:40.960Z,100352.32
2018-02-15T11:42:08.536Z,100348.39
2018-02-15T11:44:35.990Z,100351.06
2018-02-15T11:47:03.441Z,100352.41
2018-02-15T11:49:30.936Z,100350.22
2018-02-15T11:51:58.381Z,100353.25
2018-02-15T11:54:26.101Z,100347.16
2018-02-15T11:56:53.553Z,100348.91
2018-02-15T11:59:21.010Z,100351.95
2018-02-15T12:01:48.591Z,100354.56
2018-02-15T12:04:16.064Z,100354.57
2018-02-15T12:06:43.552Z,100351.17
2018-02-15T12:09:11.000Z,100353.84
2018-02-15T12:11:38.461Z,100355.03
2018-02-15T12:14:05.925Z,100351.59
2018-02-15T12:16:33.380Z,100351.66
2018-02-15T12:19:00.992Z,100352.09
2018-02-15T12:21:28.441Z,100352.08
2018-02-15T12:23:55.899Z,100356.09
2018-02-15T12:26:23.393Z,100356.58
2018-02-15T12:28:50.860Z,100354.41
2018-02-15T12:31:18.708Z,100358.35
2018-02-15T12:33:46.152Z,100356.20
2018-02-15T12:36:13.613Z,100353.58
2018-02-15T12:38:41.108Z,100352.65
2018-02-15T12:41:08.568Z,100353.05
2018-02-15T12:43:36.301Z,100356.60
2018-02-15T12:46:03.797Z,100356.98
2018-02-15T12:48:31.300Z,100366.70
2018-02-15T12:50:58.777Z,100358.34
2018-02-15T12:53:26.265Z,100356.14
2018-02-15T12:55:53.767Z,100358.34
2018-02-15T12:58:21.243Z,100352.70
2018-02-15T13:00:48.696Z,100357.03
2018-02-15T13:03:16.172Z,100351.73
2018-02-15T13:05:43.628Z,100347.36
2018-02-15T13:08:11.143Z,100346.58
2018-02-15T13:10:38.592Z,100343.95
2018-02-15T13:13:18.248Z,100351.83
2018-02-15T13:15:57.533Z,100348.33
2018-02-15T13:18:25.104Z,100358.83
2018-02-15T13:20:52.548Z,100355.81
2018-02-15T13:23:20.002Z,100362.41
2018-02-15T13:25:47.488Z,100370.28
2018-02-15T13:28:26.849Z,100371.63
2018-02-15T13:30:54.326Z,100369.88
2018-02-15T13:33:21.789Z,100375.16
2018-02-15T13:35:49.309Z,100369.45
2018-02-15T13:38:16.785Z,100366.39
2018-02-15T13:40:44.228Z,100354.57
2018-02-15T13:43:11.700Z,100348.42
2018-02-15T13:45:39.157Z,100342.29
2018-02-15T13:48:06.769Z,100342.31
2018-02-15T13:50:34.237Z,100342.32
2018-02-15T13:53:01.689Z,100356.34
2018-02-15T13:55:29.183Z,100349.76
2018-02-15T13:57:56.628Z,100356.33
2018-02-15T14:00:24.328Z,100362.46
2018-02-15T14:02:51.769Z,100363.30
2018-02-15T14:05:19.214Z,100371.66
2018-02-15T14:07:47.660Z,100376.88
2018-02-15T14:10:15.102Z,100372.51
2018-02-15T14:12:42.597Z,100374.70
2018-02-15T14:15:10.064Z,100376.01
2018-02-15T14:17:37.513Z,100367.69
2018-02-15T14:20:05.024Z,100367.69
2018-02-15T14:22:32.472Z,100361.12
2018-02-15T14:24:59.980Z,100372.07
2018-02-15T14:27:27.424Z,100372.51
2018-02-15T14:29:54.930Z,100390.89
2018-02-15T14:32:22.433Z,100392.20
2018-02-15T14:34:49.901Z,100386.95
2018-02-15T14:37:17.396Z,100391.36
2018-02-15T14:39:44.885Z,100401.40
2018-02-15T14:42:12.333Z,100396.17
2018-02-15T14:44:39.808Z,100405.78
2018-02-15T14:47:07.272Z,100404.91
2018-02-15T14:49:34.936Z,100394.42
2018-02-15T14:52:02.403Z,100381.70
2018-02-15T14:54:29.877Z,100389.61
2018-02-15T14:56:57.380Z,100393.56
2018-02-15T14:59:24.828Z,100389.62
2018-02-15T15:01:52.453Z,100394.44
2018-02-15T15:04:19.992Z,100395.30
2018-02-15T15:06:47.461Z,100396.64
2018-02-15T15:09:14.932Z,100405.84
2018-02-15T15:11:42.388Z,100405.84
2018-02-15T15:14:10.062Z,100409.72
2018-02-15T15:16:37.513Z,100403.16
2018-02-15T15:19:04.965Z,100414.09
2018-02-15T15:21:32.433Z,100412.38
2018-02-15T15:23:59.886Z,100410.59
2018-02-15T15:26:27.550Z,100415.76
2018-02-15T15:28:55.000Z,100418.33
2018-02-15T15:31:22.452Z,100419.16
2018-02-15T15:33:50.704Z,100414.82
2018-02-15T15:36:18.156Z,100408.64
2018-02-15T15:38:45.749Z,100409.59
2018-02-15T15:41:13.202Z,100413.95
2018-02-15T15:43:40.658Z,100422.34
2018-02-15T15:46:08.153Z,100424.95
2018-02-15T15:48:35.601Z,100430.69
2018-02-15T15:51:03.324Z,100428.94
2018-02-15T15:53:30.788Z,100439.84
2018-02-15T15:55:58.237Z,100451.36
2018-02-15T15:58:25.730Z,100460.95
2018-02-15T16:00:53.189Z,100471.79
2018-02-15T16:03:20.840Z,100470.14
2018-02-15T16:05:48.281Z,100473.59
2018-02-15T16:08:15.720Z,100472.67
2018-02-15T16:10:43.221Z,100479.09
2018-02-15T16:13:10.678Z,100481.41
2018-02-15T16:15:38.177Z,100486.28
2018-02-15T16:18:05.638Z,100485.28
2018-02-15T16:20:33.105Z,100478.66
2018-02-15T16:23:00.576Z,100480.40
2018-02-15T16:25:28.053Z,100490.08
2018-02-15T16:27:55.776Z,100494.91
2018-02-15T16:30:23.225Z,100493.08
2018-02-15T16:32:50.678Z,100492.58
2018-02-15T16:35:18.147Z,100488.25
2018-02-15T16:37:45.597Z,100490.45
2018-02-15T16:40:13.102Z,100492.18
2018-02-15T16:42:40.587Z,100483.58
2018-02-15T16:45:08.082Z,100486.05
2018-02-15T16:47:35.558Z,100476.38
2018-02-15T16:50:03.006Z,100493.75
2018-02-15T16:52:30.780Z,100501.19
2018-02-15T16:54:58.244Z,100503.41
2018-02-15T16:57:25.693Z,100499.45
2018-02-15T16:59:53.161Z,100504.70
2018-02-15T17:02:20.612Z,100502.95
2018-02-15T17:04:48.333Z,100495.45
2018-02-15T17:07:15.784Z,100498.50
2018-02-15T17:09:43.241Z,100507.33
2018-02-15T17:12:10.734Z,100496.91
2018-02-15T17:14:38.189Z,100497.72
2018-02-15T17:17:05.684Z,100498.15
2018-02-15T17:19:33.365Z,100502.09
2018-02-15T17:22:00.816Z,100517.41
2018-02-15T17:24:28.271Z,100525.68
2018-02-15T17:26:55.865Z,100525.34
2018-02-15T17:29:23.320Z,100524.45
2018-02-15T17:31:50.788Z,100534.94
2018-02-15T17:34:18.289Z,100530.93
2018-02-15T17:36:45.737Z,100532.69
2018-02-15T17:39:13.637Z,100536.19
2018-02-15T17:41:41.097Z,100537.90
2018-02-15T17:44:08.568Z,100542.27
2018-02-15T17:46:36.042Z,100547.91
2018-02-15T17:49:03.496Z,100547.53
2018-02-15T17:51:30.995Z,100549.27
2018-02-15T17:53:58.448Z,100562.38
2018-02-15T17:56:25.898Z,100568.18
2018-02-15T17:58:53.367Z,100570.81
2018-02-15T18:01:20.831Z,100569.01
2018-02-15T18:03:48.542Z,100572.99
2018-02-15T18:06:15.993Z,100566.16
2018-02-15T18:08:43.441Z,100566.46
2018-02-15T18:11:10.909Z,100562.06
2018-02-15T18:13:38.386Z,100568.65
2018-02-15T18:16:06.009Z,100563.30
2018-02-15T18:18:33.474Z,100561.09
2018-02-15T18:21:00.921Z,100557.03
2018-02-15T18:23:28.401Z,100566.77
2018-02-15T18:25:55.866Z,100563.70
2018-02-15T18:28:23.544Z,100568.08
2018-02-15T18:30:50.984Z,100579.93
2018-02-15T18:33:18.436Z,100586.05
2018-02-15T18:35:45.912Z,100585.58
2018-02-15T18:38:13.365Z,100581.66
2018-02-15T18:40:40.860Z,100572.87
2018-02-15T18:43:08.348Z,100575.07
2018-02-15T18:45:35.797Z,100566.70
2018-02-15T18:48:03.281Z,100567.64
2018-02-15T18:50:30.733Z,100563.28
2018-02-15T18:52:58.256Z,100560.69
2018-02-15T18:55:25.728Z,100566.83
2018-02-15T18:57:53.181Z,100566.87
2018-02-15T19:00:20.657Z,100574.33
2018-02-15T19:02:49.076Z,100575.64
2018-02-15T19:05:16.700Z,100569.94
2018-02-15T19:07:44.156Z,100577.58
2018-02-15T19:10:11.649Z,100594.76
2018-02-15T19:12:39.129Z,100601.75
2018-02-15T19:15:06.592Z,100600.52
2018-02-15T19:17:34.245Z,100592.50
2018-02-15T19:20:01.721Z,100589.63
2018-02-15T19:22:29.253Z,100586.55
2018-02-15T19:24:56.725Z,100589.52
2018-02-15T19:27:25.189Z,100590.44
2018-02-15T19:29:52.673Z,100596.52
2018-02-15T19:32:20.125Z,100590.31
2018-02-15T19:34:47.578Z,100599.95
2018-02-15T19:37:15.049Z,100606.14
2018-02-15T19:39:42.497Z,100618.20
2018-02-15T19:42:10.410Z,100624.75
2018-02-15T19:44:38.742Z,100621.91
2018-02-15T19:47:06.211Z,100613.92
2018-02-15T19:49:33.761Z,100617.51
2018-02-15T19:52:01.218Z,100618.38
2018-02-15T19:54:28.968Z,100611.30
2018-02-15T19:56:56.479Z,100612.72
2018-02-15T19:59:23.944Z,100602.21
2018-02-15T20:01:51.422Z,100594.34
2018-02-15T20:04:18.869Z,100588.42
2018-02-15T20:06:46.519Z,100591.14
2018-02-15T20:09:13.969Z,100606.56
2018-02-15T20:11:41.446Z,100613.13
2018-02-15T20:14:08.936Z,100616.24
2018-02-15T20:16:37.305Z,100637.41
2018-02-15T20:19:04.801Z,100642.72
2018-02-15T20:21:32.249Z,100650.37
2018-02-15T20:23:59.971Z,100657.59
2018-02-15T20:26:33.209Z,100651.73
2018-02-15T20:29:01.402Z,100646.42
2018-02-15T20:31:29.089Z,100649.48
2018-02-15T20:33:56.551Z,100653.77
2018-02-15T20:36:24.993Z,100650.29
2018-02-15T20:38:58.104Z,100646.35
2018-02-15T20:41:25.562Z,100660.37
2018-02-15T20:43:53.009Z,100670.45
2018-02-15T20:46:20.517Z,100664.13
2018-02-15T20:48:47.987Z,100660.66
2018-02-15T20:51:21.278Z,100663.97
2018-02-15T20:53:54.301Z,100666.08
2018-02-15T20:56:21.782Z,100662.16
2018-02-15T20:58:49.286Z,100658.52
2018-02-15T21:01:16.765Z,100655.98
2018-02-15T21:03:45.157Z,100658.52
2018-02-15T21:06:12.669Z,100648.67
2018-02-15T21:08:40.121Z,100646.92
2018-02-15T21:11:07.854Z,100640.29
2018-02-15T21:13:35.369Z,100642.59
2018-02-15T21:16:02.826Z,100642.63
2018-02-15T21:18:30.605Z,100641.91
2018-02-15T21:20:58.098Z,100655.45
2018-02-15T21:23:25.545Z,100658.61
2018-02-15T21:25:53.197Z,100651.58
2018-02-15T21:28:20.645Z,100659.94
2018-02-15T21:30:48.105Z,100655.14
2018-02-15T21:33:15.903Z,100659.53
2018-02-15T21:35:43.356Z,100667.40
2018-02-15T21:38:10.801Z,100670.87
2018-02-15T21:40:38.609Z,100673.50
2018-02-15T21:43:06.088Z,100684.84
2018-02-15T21:45:33.545Z,100681.37
2018-02-15T21:48:01.029Z,100685.33
2018-02-15T21:50:28.481Z,100695.01
2018-02-15T21:52:55.964Z,100693.19
2018-02-15T21:55:23.628Z,100709.16
2018-02-15T21:57:51.081Z,100714.39
2018-02-15T22:00:18.528Z,100710.23
2018-02-15T22:02:46.453Z,100702.31
2018-02-15T22:05:13.901Z,100705.37
2018-02-15T22:07:41.369Z,100708.88
2018-02-15T22:10:09.057Z,100706.62
2018-02-15T22:12:36.548Z,100713.99
2018-02-15T22:15:04.000Z,100721.41
2018-02-15T22:17:31.712Z,100719.28
2018-02-15T22:19:59.158Z,100715.36
2018-02-15T22:22:26.605Z,100728.02
2018-02-15T22:24:54.088Z,100729.33
2018-02-15T22:27:21.545Z,100728.48
2018-02-15T22:29:48.989Z,100734.50
2018-02-15T22:32:16.751Z,100730.59
2018-02-15T22:34:44.221Z,100731.77
2018-02-15T22:37:11.664Z,100725.61
2018-02-15T22:39:39.158Z,100736.12
2018-02-15T22:42:06.613Z,100726.53
2018-02-15T22:44:34.062Z,100736.17
2018-02-15T22:47:01.555Z,100732.67
2018-02-15T22:49:29.017Z,100745.03
2018-02-15T22:51:56.464Z,100742.47
2018-02-15T22:54:23.941Z,100745.49
2018-02-15T22:56:51.397Z,100748.00
2018-02-15T22:59:18.844Z,100772.63
2018-02-15T23:01:46.343Z,100780.91
2018-02-15T23:04:13.788Z,100786.44
2018-02-15T23:06:41.238Z,100794.39
2018-02-15T23:09:09.050Z,100802.70
2018-02-15T23:11:36.497Z,100799.64
2018-02-15T23:14:03.944Z,100803.96
2018-02-15T23:16:31.684Z,100796.53
2018-02-15T23:18:59.156Z,100796.92
2018-02-15T23:21:26.597Z,100801.36
2018-02-15T23:23:54.189Z,100791.75
2018-02-15T23:26:21.645Z,100789.95
2018-02-15T23:28:49.105Z,100792.17
2018-02-15T23:31:16.984Z,100792.58
2018-02-15T23:33:44.452Z,100791.61
2018-02-15T23:36:11.895Z,100799.55
2018-02-15T23:38:39.522Z,100793.77
2018-02-15T23:41:06.982Z,100805.72
2018-02-15T23:43:34.485Z,100807.44
2018-02-15T23:46:01.973Z,100806.19
2018-02-15T23:48:29.437Z,100812.76
2018-02-15T23:50:56.881Z,100824.98
2018-02-15T23:53:24.376Z,100829.86
2018-02-15T23:55:51.825Z,100820.59
2018-02-15T23:58:19.300Z,100830.33
